Aviation Digital Data Service (ADDS)

Output produced by METARs form (0408 UTC 26 April 2019)
found at http://www.aviationweather.gov/metar/data/
 
METAR text: RPLB 260400Z 09012KT 060V120 9999 FEW020 35/21 Q1010 NOSIG RMK A2983
Conditions at: RPLB (OLONGAPO/SUBIC , PH) observed 0400 UTC 26 April 2019
Temperature: 35.0°C (95°F)
Dewpoint: 21.0°C (70°F) [RH = 44%]
Pressure (altimeter): 29.82 inches Hg (1010.0 mb)
Winds: from the E (90 degrees) at 14 MPH (12 knots; 6.2 m/s)
Visibility: 6 or more miles (10+ km)
Ceiling: at least 12,000 feet AGL
Clouds: few clouds at 2000 feet AGL
Weather: no significant weather observed at this time

METAR text: RPLB 260300Z 09011KT 9999 SCT020 34/21 Q1011 NOSIG RMK A2985
Conditions at: RPLB (OLONGAPO/SUBIC , PH) observed 0300 UTC 26 April 2019
Temperature: 34.0°C (93°F)
Dewpoint: 21.0°C (70°F) [RH = 47%]
Pressure (altimeter): 29.85 inches Hg (1011.0 mb)
Winds: from the E (90 degrees) at 13 MPH (11 knots; 5.7 m/s)
Visibility: 6 or more miles (10+ km)
Ceiling: at least 12,000 feet AGL
Clouds: scattered clouds at 2000 feet AGL
Weather: no significant weather observed at this time

METAR text: RPLB 260200Z 08009KT 040V120 9999 FEW020 BKN080 33/22 Q1011 NOSIG RMK A2985
Conditions at: RPLB (OLONGAPO/SUBIC , PH) observed 0200 UTC 26 April 2019
Temperature: 33.0°C (91°F)
Dewpoint: 22.0°C (72°F) [RH = 53%]
Pressure (altimeter): 29.85 inches Hg (1011.0 mb)
Winds: from the E (80 degrees) at 10 MPH (9 knots; 4.6 m/s)
Visibility: 6 or more miles (10+ km)
Ceiling: 8000 feet AGL
Clouds: few clouds at 2000 feet AGL
broken clouds at 8000 feet AGL
Weather: no significant weather observed at this time

METAR text: RPLB 260100Z 07008KT 010V100 9999 FEW020 32/22 Q1011 NOSIG RMK A2985
Conditions at: RPLB (OLONGAPO/SUBIC , PH) observed 0100 UTC 26 April 2019
Temperature: 32.0°C (90°F)
Dewpoint: 22.0°C (72°F) [RH = 56%]
Pressure (altimeter): 29.85 inches Hg (1011.0 mb)
Winds: from the ENE (70 degrees) at 9 MPH (8 knots; 4.1 m/s)
Visibility: 6 or more miles (10+ km)
Ceiling: at least 12,000 feet AGL
Clouds: few clouds at 2000 feet AGL
Weather: no significant weather observed at this time

METAR text: RPLB 260000Z 08005KT 050V110 9999 FEW020 30/22 Q1011 NOSIG RMK A2985
Conditions at: RPLB (OLONGAPO/SUBIC , PH) observed 0000 UTC 26 April 2019
Temperature: 30.0°C (86°F)
Dewpoint: 22.0°C (72°F) [RH = 62%]
Pressure (altimeter): 29.85 inches Hg (1011.0 mb)
Winds: from the E (80 degrees) at 6 MPH (5 knots; 2.6 m/s)
Visibility: 6 or more miles (10+ km)
Ceiling: at least 12,000 feet AGL
Clouds: few clouds at 2000 feet AGL
Weather: no significant weather observed at this time

METAR text: RPLB 252300Z 06004KT 020V080 9999 FEW020 28/23 Q1011 NOSIG RMK A2985
Conditions at: RPLB (OLONGAPO/SUBIC , PH) observed 2300 UTC 25 April 2019
Temperature: 28.0°C (82°F)
Dewpoint: 23.0°C (73°F) [RH = 74%]
Pressure (altimeter): 29.85 inches Hg (1011.0 mb)
Winds: from the ENE (60 degrees) at 5 MPH (4 knots; 2.1 m/s)
Visibility: 6 or more miles (10+ km)
Ceiling: at least 12,000 feet AGL
Clouds: few clouds at 2000 feet AGL
Weather: no significant weather observed at this time

METAR text: RPLB 252200Z 06004KT 9999 FEW020 25/23 Q1010 NOSIG RMK A2983
Conditions at: RPLB (OLONGAPO/SUBIC , PH) observed 2200 UTC 25 April 2019
Temperature: 25.0°C (77°F)
Dewpoint: 23.0°C (73°F) [RH = 89%]
Pressure (altimeter): 29.82 inches Hg (1010.0 mb)
Winds: from the ENE (60 degrees) at 5 MPH (4 knots; 2.1 m/s)
Visibility: 6 or more miles (10+ km)
Ceiling: at least 12,000 feet AGL
Clouds: few clouds at 2000 feet AGL
Weather: no significant weather observed at this time

METAR text: RPLB 252100Z 09005KT 9999 FEW020 25/23 Q1010 NOSIG RMK A2983
Conditions at: RPLB (OLONGAPO/SUBIC , PH) observed 2100 UTC 25 April 2019
Temperature: 25.0°C (77°F)
Dewpoint: 23.0°C (73°F) [RH = 89%]
Pressure (altimeter): 29.82 inches Hg (1010.0 mb)
Winds: from the E (90 degrees) at 6 MPH (5 knots; 2.6 m/s)
Visibility: 6 or more miles (10+ km)
Ceiling: at least 12,000 feet AGL
Clouds: few clouds at 2000 feet AGL
Weather: no significant weather observed at this time

METAR text: RPLB 252000Z 10004KT 060V130 9999 FEW020 25/22 Q1010 NOSIG RMK A2983
Conditions at: RPLB (OLONGAPO/SUBIC , PH) observed 2000 UTC 25 April 2019
Temperature: 25.0°C (77°F)
Dewpoint: 22.0°C (72°F) [RH = 83%]
Pressure (altimeter): 29.82 inches Hg (1010.0 mb)
Winds: from the E (100 degrees) at 5 MPH (4 knots; 2.1 m/s)
Visibility: 6 or more miles (10+ km)
Ceiling: at least 12,000 feet AGL
Clouds: few clouds at 2000 feet AGL
Weather: no significant weather observed at this time

METAR text: RPLB 251900Z VRB02KT 9999 FEW020 26/22 Q1010 NOSIG RMK A2983
Conditions at: RPLB (OLONGAPO/SUBIC , PH) observed 1900 UTC 25 April 2019
Temperature: 26.0°C (79°F)
Dewpoint: 22.0°C (72°F) [RH = 79%]
Pressure (altimeter): 29.82 inches Hg (1010.0 mb)
Winds: variable direction winds at 2 MPH (2 knots; 1.0 m/s)
Visibility: 6 or more miles (10+ km)
Ceiling: at least 12,000 feet AGL
Clouds: few clouds at 2000 feet AGL
Weather: no significant weather observed at this time

METAR text: RPLB 251800Z 10004KT 9999 FEW020 26/22 Q1010 NOSIG RMK A2983
Conditions at: RPLB (OLONGAPO/SUBIC , PH) observed 1800 UTC 25 April 2019
Temperature: 26.0°C (79°F)
Dewpoint: 22.0°C (72°F) [RH = 79%]
Pressure (altimeter): 29.82 inches Hg (1010.0 mb)
Winds: from the E (100 degrees) at 5 MPH (4 knots; 2.1 m/s)
Visibility: 6 or more miles (10+ km)
Ceiling: at least 12,000 feet AGL
Clouds: few clouds at 2000 feet AGL
Weather: no significant weather observed at this time

METAR text: RPLB 251700Z 09005KT 9999 FEW020 26/22 Q1010 NOSIG RMK A2983
Conditions at: RPLB (OLONGAPO/SUBIC , PH) observed 1700 UTC 25 April 2019
Temperature: 26.0°C (79°F)
Dewpoint: 22.0°C (72°F) [RH = 79%]
Pressure (altimeter): 29.82 inches Hg (1010.0 mb)
Winds: from the E (90 degrees) at 6 MPH (5 knots; 2.6 m/s)
Visibility: 6 or more miles (10+ km)
Ceiling: at least 12,000 feet AGL
Clouds: few clouds at 2000 feet AGL
Weather: no significant weather observed at this time

METAR text: RPLB 251600Z 08004KT 9999 FEW020 27/23 Q1011 NOSIG RMK A2985
Conditions at: RPLB (OLONGAPO/SUBIC , PH) observed 1600 UTC 25 April 2019
Temperature: 27.0°C (81°F)
Dewpoint: 23.0°C (73°F) [RH = 79%]
Pressure (altimeter): 29.85 inches Hg (1011.0 mb)
Winds: from the E (80 degrees) at 5 MPH (4 knots; 2.1 m/s)
Visibility: 6 or more miles (10+ km)
Ceiling: at least 12,000 feet AGL
Clouds: few clouds at 2000 feet AGL
Weather: no significant weather observed at this time

METAR text: RPLB 251500Z VRB02KT 9999 FEW020 28/23 Q1011 NOSIG RMK A2985
Conditions at: RPLB (OLONGAPO/SUBIC , PH) observed 1500 UTC 25 April 2019
Temperature: 28.0°C (82°F)
Dewpoint: 23.0°C (73°F) [RH = 74%]
Pressure (altimeter): 29.85 inches Hg (1011.0 mb)
Winds: variable direction winds at 2 MPH (2 knots; 1.0 m/s)
Visibility: 6 or more miles (10+ km)
Ceiling: at least 12,000 feet AGL
Clouds: few clouds at 2000 feet AGL
Weather: no significant weather observed at this time

METAR text: RPLB 251400Z 02004KT 330V060 9999 FEW020 29/24 Q1011 NOSIG RMK A2985
Conditions at: RPLB (OLONGAPO/SUBIC , PH) observed 1400 UTC 25 April 2019
Temperature: 29.0°C (84°F)
Dewpoint: 24.0°C (75°F) [RH = 74%]
Pressure (altimeter): 29.85 inches Hg (1011.0 mb)
Winds: from the NNE (20 degrees) at 5 MPH (4 knots; 2.1 m/s)
Visibility: 6 or more miles (10+ km)
Ceiling: at least 12,000 feet AGL
Clouds: few clouds at 2000 feet AGL
Weather: no significant weather observed at this time

METAR text: RPLB 251300Z 36006KT 320V030 9999 FEW020 29/24 Q1010 NOSIG RMK A2983
Conditions at: RPLB (OLONGAPO/SUBIC , PH) observed 1300 UTC 25 April 2019
Temperature: 29.0°C (84°F)
Dewpoint: 24.0°C (75°F) [RH = 74%]
Pressure (altimeter): 29.82 inches Hg (1010.0 mb)
Winds: from the N (360 degrees) at 7 MPH (6 knots; 3.1 m/s)
Visibility: 6 or more miles (10+ km)
Ceiling: at least 12,000 feet AGL
Clouds: few clouds at 2000 feet AGL
Weather: no significant weather observed at this time

METAR text: RPLB 251200Z 34010KT 9999 FEW020 30/24 Q1010 NOSIG RMK A2983
Conditions at: RPLB (OLONGAPO/SUBIC , PH) observed 1200 UTC 25 April 2019
Temperature: 30.0°C (86°F)
Dewpoint: 24.0°C (75°F) [RH = 70%]
Pressure (altimeter): 29.82 inches Hg (1010.0 mb)
Winds: from the NNW (340 degrees) at 12 MPH (10 knots; 5.1 m/s)
Visibility: 6 or more miles (10+ km)
Ceiling: at least 12,000 feet AGL
Clouds: few clouds at 2000 feet AGL
Weather: no significant weather observed at this time

METAR text: RPLB 251000Z 33011KT 9999 FEW020 30/24 Q1009 RMK A2980
Conditions at: RPLB (OLONGAPO/SUBIC , PH) observed 1000 UTC 25 April 2019
Temperature: 30.0°C (86°F)
Dewpoint: 24.0°C (75°F) [RH = 70%]
Pressure (altimeter): 29.79 inches Hg (1009.0 mb)
Winds: from the NNW (330 degrees) at 13 MPH (11 knots; 5.7 m/s)
Visibility: 6 or more miles (10+ km)
Ceiling: at least 12,000 feet AGL
Clouds: few clouds at 2000 feet AGL
Weather: no significant weather observed at this time

METAR text: RPLB 250900Z 08008KT 9999 FEW020 36/15 Q1008 NOSIG RMK A2977
Conditions at: RPLB (OLONGAPO/SUBIC , PH) observed 0900 UTC 25 April 2019
Temperature: 36.0°C (97°F)
Dewpoint: 15.0°C (59°F) [RH = 29%]
Pressure (altimeter): 29.76 inches Hg (1008.0 mb)
Winds: from the E (80 degrees) at 9 MPH (8 knots; 4.1 m/s)
Visibility: 6 or more miles (10+ km)
Ceiling: at least 12,000 feet AGL
Clouds: few clouds at 2000 feet AGL
Weather: no significant weather observed at this time

METAR text: RPLB 250800Z 06009KT 9999 FEW020 37/14 Q10078 RMK A274
Conditions at: RPLB (OLONGAPO/SUBIC , PH) observed 0800 UTC 25 April 2019
Temperature: 37.0°C (99°F)
Dewpoint: 14.0°C (57°F) [RH = 25%]
Pressure (altimeter): missing
Winds: from the ENE (60 degrees) at 10 MPH (9 knots; 4.6 m/s)
Visibility: 6 or more miles (10+ km)
Ceiling: at least 12,000 feet AGL
Clouds: few clouds at 2000 feet AGL
Weather: no significant weather observed at this time

METAR text: RPLB 250700Z 10011KT 060V150 9999 FEW020 37/24 Q1007 NOSIG RMK A2974
Conditions at: RPLB (OLONGAPO/SUBIC , PH) observed 0700 UTC 25 April 2019
Temperature: 37.0°C (99°F)
Dewpoint: 24.0°C (75°F) [RH = 48%]
Pressure (altimeter): 29.73 inches Hg (1007.0 mb)
Winds: from the E (100 degrees) at 13 MPH (11 knots; 5.7 m/s)
Visibility: 6 or more miles (10+ km)
Ceiling: at least 12,000 feet AGL
Clouds: few clouds at 2000 feet AGL
Weather: no significant weather observed at this time

METAR text: RPLB 250600Z 09011KT 050V120 9999 FEW020 36/14 Q1008 NOSIG RMK A2977
Conditions at: RPLB (OLONGAPO/SUBIC , PH) observed 0600 UTC 25 April 2019
Temperature: 36.0°C (97°F)
Dewpoint: 14.0°C (57°F) [RH = 27%]
Pressure (altimeter): 29.76 inches Hg (1008.0 mb)
Winds: from the E (90 degrees) at 13 MPH (11 knots; 5.7 m/s)
Visibility: 6 or more miles (10+ km)
Ceiling: at least 12,000 feet AGL
Clouds: few clouds at 2000 feet AGL
Weather: no significant weather observed at this time

METAR text: RPLB 250500Z 05010KT 020V080 9999 FEW020 36/17 Q1009 RMK A2980
Conditions at: RPLB (OLONGAPO/SUBIC , PH) observed 0500 UTC 25 April 2019
Temperature: 36.0°C (97°F)
Dewpoint: 17.0°C (63°F) [RH = 33%]
Pressure (altimeter): 29.79 inches Hg (1009.0 mb)
Winds: from the NE (50 degrees) at 12 MPH (10 knots; 5.1 m/s)
Visibility: 6 or more miles (10+ km)
Ceiling: at least 12,000 feet AGL
Clouds: few clouds at 2000 feet AGL
Weather: no significant weather observed at this time

METAR text: RPLB 250400Z 07011KT 030V100 9999 FEW020 35/18 Q1010 RMK A2983
Conditions at: RPLB (OLONGAPO/SUBIC , PH) observed 0400 UTC 25 April 2019
Temperature: 35.0°C (95°F)
Dewpoint: 18.0°C (64°F) [RH = 37%]
Pressure (altimeter): 29.82 inches Hg (1010.0 mb)
Winds: from the ENE (70 degrees) at 13 MPH (11 knots; 5.7 m/s)
Visibility: 6 or more miles (10+ km)
Ceiling: at least 12,000 feet AGL
Clouds: few clouds at 2000 feet AGL
Weather: no significant weather observed at this time

METAR text: RPLB 250300Z 06010KT 010V110 9999 FEW020 34/21 Q1011 RMK A2985
Conditions at: RPLB (OLONGAPO/SUBIC , PH) observed 0300 UTC 25 April 2019
Temperature: 34.0°C (93°F)
Dewpoint: 21.0°C (70°F) [RH = 47%]
Pressure (altimeter): 29.85 inches Hg (1011.0 mb)
Winds: from the ENE (60 degrees) at 12 MPH (10 knots; 5.1 m/s)
Visibility: 6 or more miles (10+ km)
Ceiling: at least 12,000 feet AGL
Clouds: few clouds at 2000 feet AGL
Weather: no significant weather observed at this time

METAR text: RPLB 250200Z 04010KT 010V070 9999 FEW020 32/21 Q1011 RMK A2985
Conditions at: RPLB (OLONGAPO/SUBIC , PH) observed 0200 UTC 25 April 2019
Temperature: 32.0°C (90°F)
Dewpoint: 21.0°C (70°F) [RH = 52%]
Pressure (altimeter): 29.85 inches Hg (1011.0 mb)
Winds: from the NE (40 degrees) at 12 MPH (10 knots; 5.1 m/s)
Visibility: 6 or more miles (10+ km)
Ceiling: at least 12,000 feet AGL
Clouds: few clouds at 2000 feet AGL
Weather: no significant weather observed at this time

METAR text: RPLB 250100Z 06011KT 9999 FEW020 31/21 Q1011 RMK A2985
Conditions at: RPLB (OLONGAPO/SUBIC , PH) observed 0100 UTC 25 April 2019
Temperature: 31.0°C (88°F)
Dewpoint: 21.0°C (70°F) [RH = 55%]
Pressure (altimeter): 29.85 inches Hg (1011.0 mb)
Winds: from the ENE (60 degrees) at 13 MPH (11 knots; 5.7 m/s)
Visibility: 6 or more miles (10+ km)
Ceiling: at least 12,000 feet AGL
Clouds: few clouds at 2000 feet AGL
Weather: no significant weather observed at this time

METAR text: RPLB 250000Z 05007KT 010V080 9999 FEW020 30/21 Q1011 RMK A2985
Conditions at: RPLB (OLONGAPO/SUBIC , PH) observed 0000 UTC 25 April 2019
Temperature: 30.0°C (86°F)
Dewpoint: 21.0°C (70°F) [RH = 59%]
Pressure (altimeter): 29.85 inches Hg (1011.0 mb)
Winds: from the NE (50 degrees) at 8 MPH (7 knots; 3.6 m/s)
Visibility: 6 or more miles (10+ km)
Ceiling: at least 12,000 feet AGL
Clouds: few clouds at 2000 feet AGL
Weather: no significant weather observed at this time

METAR text: RPLB 242300Z 07005KT 9999 FEW020 27/22 Q1010 NOSIG RMK A2983
Conditions at: RPLB (OLONGAPO/SUBIC , PH) observed 2300 UTC 24 April 2019
Temperature: 27.0°C (81°F)
Dewpoint: 22.0°C (72°F) [RH = 74%]
Pressure (altimeter): 29.82 inches Hg (1010.0 mb)
Winds: from the ENE (70 degrees) at 6 MPH (5 knots; 2.6 m/s)
Visibility: 6 or more miles (10+ km)
Ceiling: at least 12,000 feet AGL
Clouds: few clouds at 2000 feet AGL
Weather: no significant weather observed at this time

METAR text: RPLB 242200Z 09005KT 9999 FEW020 25/21 Q1010 NOSIG RMK A2983
Conditions at: RPLB (OLONGAPO/SUBIC , PH) observed 2200 UTC 24 April 2019
Temperature: 25.0°C (77°F)
Dewpoint: 21.0°C (70°F) [RH = 79%]
Pressure (altimeter): 29.82 inches Hg (1010.0 mb)
Winds: from the E (90 degrees) at 6 MPH (5 knots; 2.6 m/s)
Visibility: 6 or more miles (10+ km)
Ceiling: at least 12,000 feet AGL
Clouds: few clouds at 2000 feet AGL
Weather: no significant weather observed at this time

METAR text: RPLB 242100Z 09004KT 9999 FEW020 25/22 Q1010 NOSIG RMK A2983
Conditions at: RPLB (OLONGAPO/SUBIC , PH) observed 2100 UTC 24 April 2019
Temperature: 25.0°C (77°F)
Dewpoint: 22.0°C (72°F) [RH = 83%]
Pressure (altimeter): 29.82 inches Hg (1010.0 mb)
Winds: from the E (90 degrees) at 5 MPH (4 knots; 2.1 m/s)
Visibility: 6 or more miles (10+ km)
Ceiling: at least 12,000 feet AGL
Clouds: few clouds at 2000 feet AGL
Weather: no significant weather observed at this time

METAR text: RPLB 242000Z 04003KT 020V080 9999 FEW020 26/22 Q1009 NOSIG RMK A2980
Conditions at: RPLB (OLONGAPO/SUBIC , PH) observed 2000 UTC 24 April 2019
Temperature: 26.0°C (79°F)
Dewpoint: 22.0°C (72°F) [RH = 79%]
Pressure (altimeter): 29.79 inches Hg (1009.0 mb)
Winds: from the NE (40 degrees) at 3 MPH (3 knots; 1.5 m/s)
Visibility: 6 or more miles (10+ km)
Ceiling: at least 12,000 feet AGL
Clouds: few clouds at 2000 feet AGL
Weather: no significant weather observed at this time

METAR text: RPLB 241900Z 06005KT 9999 FEW020 26/22 Q1009 NOSIG RMK A2980
Conditions at: RPLB (OLONGAPO/SUBIC , PH) observed 1900 UTC 24 April 2019
Temperature: 26.0°C (79°F)
Dewpoint: 22.0°C (72°F) [RH = 79%]
Pressure (altimeter): 29.79 inches Hg (1009.0 mb)
Winds: from the ENE (60 degrees) at 6 MPH (5 knots; 2.6 m/s)
Visibility: 6 or more miles (10+ km)
Ceiling: at least 12,000 feet AGL
Clouds: few clouds at 2000 feet AGL
Weather: no significant weather observed at this time

METAR text: RPLB 241800Z 07004KT 9999 FEW020 27/22 Q1010 NOSIG RMK A2983
Conditions at: RPLB (OLONGAPO/SUBIC , PH) observed 1800 UTC 24 April 2019
Temperature: 27.0°C (81°F)
Dewpoint: 22.0°C (72°F) [RH = 74%]
Pressure (altimeter): 29.82 inches Hg (1010.0 mb)
Winds: from the ENE (70 degrees) at 5 MPH (4 knots; 2.1 m/s)
Visibility: 6 or more miles (10+ km)
Ceiling: at least 12,000 feet AGL
Clouds: few clouds at 2000 feet AGL
Weather: no significant weather observed at this time

METAR text: RPLB 241700Z 07012KT 9999 FEW020 28/22 Q1010 NOSIG RMK A2983
Conditions at: RPLB (OLONGAPO/SUBIC , PH) observed 1700 UTC 24 April 2019
Temperature: 28.0°C (82°F)
Dewpoint: 22.0°C (72°F) [RH = 70%]
Pressure (altimeter): 29.82 inches Hg (1010.0 mb)
Winds: from the ENE (70 degrees) at 14 MPH (12 knots; 6.2 m/s)
Visibility: 6 or more miles (10+ km)
Ceiling: at least 12,000 feet AGL
Clouds: few clouds at 2000 feet AGL
Weather: no significant weather observed at this time

Forecast for: RPLB (OLONGAPO/SUBIC , PH)
Text: TAF RPLB 252300Z 2600/2624 07007KT 9999 FEW020 TX36/2606Z TN26/2622Z
Forecast period: 0000 UTC 26 April 2019 to 0000 UTC 27 April 2019
Forecast type: FROM: standard forecast or significant change
Winds: from the ENE (70 degrees) at 8 MPH (7 knots; 3.6 m/s)
Visibility: 6 or more miles 10+ km)
Ceiling: at least 12,000 feet AGL
Clouds: few clouds at 2000 feet AGL
Weather: no significant weather forecast for this period
Text: TEMPO 2600/2606 05012KT FEW020 SCT080
Forecast period: 0000 to 0600 UTC 26 April 2019
Forecast type: TEMPORARY: The following changes expected for less than half the time period
Winds: from the NE (50 degrees) at 14 MPH (12 knots; 6.2 m/s)
Visibility: missing
Ceiling: at least 12,000 feet AGL
Clouds: few clouds at 2000 feet AGL
scattered clouds at 8000 feet AGL
Weather: no significant weather forecast for this period